Buckskin, Indiana
Current Conditions -  °F | °C
As of 1:54 PM on Tuesday 21 Oct 2014 (Local Time) from KEVV Reporting Station
Broken Clouds Broken Clouds  
Wind Chill: 62°   Ceiling: 4600
Heat Index: 62°   Visibility: 10mi
Dew Point: 44°   Wind: 9mph
Humidity: 52%   Direction: 10°N
Pressure: 30.08"   Gusts: NA
Location:  38.23°N, 87.41°W
Report Text: KEVV 211854Z 01008KT 10SM BKN046 17/07 A3008 RMK AO2 SLP187 T01670067
Loading
Personal Weather Stations






























Interactive Weather Map
Tropical Storm Tracking
New forecast layout! Learn more

10-Day Weather Forecast

Advertisements
Track Severe Weather on mobile